Time;durP1;ratioP1;P1;durP2;ratioP2;P2;SDS_P1;SDS_P2;PMS_P1;PMS_P2;Temp;Humidity;BMP_temperature;BMP_pressure;BME280_temperature;BME280_humidity;BME280_pressure;Samples;Min_cycle;Max_cycle;Signal;HPM_P1;HPM_P2
2022/12/24 00:01:54;;;;;;;;;;;;;;;11.97;nan;100485.81;5012469;28;19948;-34
2022/12/24 00:04:19;;;;;;;;;;;;;;;11.95;nan;100497.91;5006358;28;20187;-34
2022/12/24 00:06:44;;;;;;;;;;;;;;;11.93;nan;100490.09;5003585;28;19925;-34
2022/12/24 00:09:10;;;;;;;;;;;;;;;11.94;nan;100493.59;5007511;28;19922;-34
2022/12/24 00:11:35;;;;;;;;;;;;;;;11.94;nan;100501.66;5004575;28;19964;-34
2022/12/24 00:14:00;;;;;;;;;;;;;;;11.93;nan;100506.22;5005238;28;20295;-34
2022/12/24 00:16:26;;;;;;;;;;;;;;;11.93;nan;100506.22;5011441;28;19917;-35
2022/12/24 00:18:51;;;;;;;;;;;;;;;11.92;nan;100503.78;5008055;28;19921;-34
2022/12/24 00:21:17;;;;;;;;;;;;;;;11.90;nan;100490.63;5009313;28;19921;-34
2022/12/24 00:23:42;;;;;;;;;;;;;;;11.91;nan;100497.63;5004730;28;20387;-35
2022/12/24 00:26:08;;;;;;;;;;;;;;;11.90;nan;100501.38;5011028;28;20096;-34
2022/12/24 00:28:33;;;;;;;;;;;;;;;11.91;nan;100502.19;5008766;28;19917;-34
2022/12/24 00:30:58;;;;;;;;;;;;;;;11.89;nan;100496.28;5011238;28;19918;-34
2022/12/24 00:33:23;;;;;;;;;;;;;;;11.86;nan;100500.28;5008101;28;19917;-34
2022/12/24 00:35:50;;;;;;;;;;;;;;;11.85;nan;100497.84;5007751;28;19959;-34
2022/12/24 00:38:15;;;;;;;;;;;;;;;11.85;nan;100495.16;5011367;28;19918;-34
2022/12/24 00:40:40;;;;;;;;;;;;;;;11.84;nan;100496.22;5003465;28;19922;-34
2022/12/24 00:43:06;;;;;;;;;;;;;;;11.81;nan;100500.25;5006903;28;19988;-34
2022/12/24 00:45:31;;;;;;;;;;;;;;;11.75;nan;100502.09;5009067;28;19971;-34
2022/12/24 00:47:56;;;;;;;;;;;;;;;11.70;nan;100509.31;5007604;28;19921;-34
2022/12/24 00:50:22;;;;;;;;;;;;;;;11.69;nan;100511.19;5007734;28;19924;-34
2022/12/24 00:52:47;;;;;;;;;;;;;;;11.69;nan;100508.50;5005670;28;20012;-35
2022/12/24 00:55:12;;;;;;;;;;;;;;;11.67;nan;100507.97;5007868;28;20016;-34
2022/12/24 00:57:38;;;;;;;;;;;;;;;11.62;nan;100510.59;5005771;28;19960;-34
2022/12/24 01:00:04;;;;;;;;;;;;;;;11.61;nan;100514.34;5009003;28;19921;-35
2022/12/24 01:02:29;;;;;;;;;;;;;;;11.60;nan;100511.94;5004640;28;20003;-34
2022/12/24 01:05:09;;;;;;;;;;;;;;;11.58;nan;100520.25;5006291;28;19960;-33
2022/12/24 01:07:36;;;;;;;;;;;;;;;11.52;nan;100521.28;5009055;28;19925;-34
2022/12/24 01:10:01;;;;;;;;;;;;;;;11.53;nan;100514.06;5010293;28;20004;-34
2022/12/24 01:12:26;;;;;;;;;;;;;;;11.55;nan;100526.13;5007572;28;20009;-34
2022/12/24 01:14:52;;;;;;;;;;;;;;;11.58;nan;100524.81;5010902;28;19963;-34
2022/12/24 01:17:17;;;;;;;;;;;;;;;11.60;nan;100533.41;5009997;28;20378;-34
2022/12/24 01:19:42;;;;;;;;;;;;;;;11.62;nan;100529.38;5008893;28;20454;-34
2022/12/24 01:22:08;;;;;;;;;;;;;;;11.63;nan;100524.81;5005147;28;20018;-34
2022/12/24 01:24:33;;;;;;;;;;;;;;;11.64;nan;100527.25;5009352;28;20413;-33
2022/12/24 01:26:59;;;;;;;;;;;;;;;11.64;nan;100527.25;5010085;28;19917;-34
2022/12/24 01:29:24;;;;;;;;;;;;;;;11.65;nan;100530.72;5009641;28;19917;-34
2022/12/24 01:31:49;;;;;;;;;;;;;;;11.65;nan;100533.41;4998173;28;19913;-34
2022/12/24 01:34:14;;;;;;;;;;;;;;;11.66;nan;100541.22;5008350;28;20005;-34
2022/12/24 01:36:40;;;;;;;;;;;;;;;11.68;nan;100546.34;5009411;28;19952;-34
2022/12/24 01:39:05;;;;;;;;;;;;;;;11.67;nan;100550.91;5006649;28;19921;-34
2022/12/24 01:44:19;;;;;;;;;;;;;;;11.62;nan;100553.53;5006842;28;19924;-34
2022/12/24 01:46:45;;;;;;;;;;;;;;;11.59;nan;100553.25;5007917;28;19918;-34
2022/12/24 01:49:12;;;;;;;;;;;;;;;11.57;nan;100545.47;5006210;28;20008;-34
2022/12/24 01:51:37;;;;;;;;;;;;;;;11.58;nan;100559.69;5005649;28;19924;-34
2022/12/24 01:54:06;;;;;;;;;;;;;;;11.56;nan;100557.25;5005743;28;19921;-34
2022/12/24 01:56:31;;;;;;;;;;;;;;;11.56;nan;100559.13;5008165;28;19960;-34
2022/12/24 01:58:59;;;;;;;;;;;;;;;11.55;nan;100562.88;5007571;28;19925;-34
2022/12/24 02:01:25;;;;;;;;;;;;;;;11.56;nan;100553.78;5005411;28;20478;-34
2022/12/24 02:03:50;;;;;;;;;;;;;;;11.56;nan;100557.25;5006890;28;19983;-34
2022/12/24 02:06:17;;;;;;;;;;;;;;;11.55;nan;100560.22;5010072;28;19917;-34
2022/12/24 02:08:43;;;;;;;;;;;;;;;11.57;nan;100553.50;5006882;28;19917;-35
2022/12/24 02:11:14;;;;;;;;;;;;;;;11.57;nan;100555.38;5008793;28;20386;-34
2022/12/24 02:13:40;;;;;;;;;;;;;;;11.54;nan;100561.28;5006420;28;19953;-33
2022/12/24 02:16:12;;;;;;;;;;;;;;;11.55;nan;100565.56;5007936;28;19928;-33
2022/12/24 02:18:55;;;;;;;;;;;;;;;11.52;nan;100566.91;5006575;28;19921;-33
2022/12/24 02:21:27;;;;;;;;;;;;;;;11.45;nan;100564.41;5004367;28;19918;-32
2022/12/24 02:23:52;;;;;;;;;;;;;;;11.41;nan;100563.34;5006321;28;20174;-33
2022/12/24 02:26:36;;;;;;;;;;;;;;;11.42;nan;100578.34;5007525;28;19917;-33
2022/12/24 02:29:04;;;;;;;;;;;;;;;11.43;nan;100576.47;5009722;28;20009;-32
2022/12/24 02:31:39;;;;;;;;;;;;;;;11.43;nan;100579.97;5011096;28;19921;-32
2022/12/24 02:34:28;;;;;;;;;;;;;;;11.44;nan;100578.09;5005438;28;20295;-33
2022/12/24 02:37:04;;;;;;;;;;;;;;;11.42;nan;100588.28;4992663;28;20249;-33
2022/12/24 02:39:36;;;;;;;;;;;;;;;11.41;nan;100584.78;5008412;28;20035;-33
2022/12/24 02:42:07;;;;;;;;;;;;;;;11.43;nan;100579.97;5004946;28;19976;-32
2022/12/24 02:44:38;;;;;;;;;;;;;;;11.43;nan;100585.34;5014078;28;20152;-32
2022/12/24 02:47:05;;;;;;;;;;;;;;;11.43;nan;100581.84;5006190;28;19955;-33
2022/12/24 02:49:30;;;;;;;;;;;;;;;11.42;nan;100585.59;5009514;28;19998;-33
2022/12/24 02:51:56;;;;;;;;;;;;;;;11.40;nan;100585.06;5016873;28;19921;-33
2022/12/24 02:54:21;;;;;;;;;;;;;;;11.38;nan;100596.03;5011329;28;19999;-32
2022/12/24 02:57:05;;;;;;;;;;;;;;;11.36;nan;100597.38;5015572;28;19925;-32
2022/12/24 02:59:41;;;;;;;;;;;;;;;11.36;nan;100594.69;5008996;28;19918;-33
2022/12/24 03:02:09;;;;;;;;;;;;;;;11.35;nan;100599.25;5012952;28;22001;-33
2022/12/24 03:05:10;;;;;;;;;;;;;;;11.36;nan;100610.78;5012596;28;20391;-32
2022/12/24 03:07:38;;;;;;;;;;;;;;;11.34;nan;100604.88;4949941;28;19918;-33
2022/12/24 03:10:06;;;;;;;;;;;;;;;11.35;nan;100603.81;4999548;28;19925;-33
2022/12/24 03:12:38;;;;;;;;;;;;;;;11.33;nan;100608.63;5013120;28;20339;-32
2022/12/24 03:15:05;;;;;;;;;;;;;;;11.34;nan;100612.91;5007158;28;20146;-33
2022/12/24 03:17:33;;;;;;;;;;;;;;;11.34;nan;100620.97;5010174;28;19971;-32
2022/12/24 03:19:59;;;;;;;;;;;;;;;11.36;nan;100616.94;5011463;28;19917;-32
2022/12/24 03:22:26;;;;;;;;;;;;;;;11.37;nan;100610.53;5007949;28;19944;-32
2022/12/24 03:24:51;;;;;;;;;;;;;;;11.34;nan;100613.72;5009209;28;19917;-33
2022/12/24 03:27:16;;;;;;;;;;;;;;;11.35;nan;100612.66;5013399;28;19925;-32
2022/12/24 03:29:43;;;;;;;;;;;;;;;11.36;nan;100622.31;5013098;28;20370;-33
2022/12/24 03:32:08;;;;;;;;;;;;;;;11.36;nan;100625.00;5008331;28;19918;-32
2022/12/24 03:34:34;;;;;;;;;;;;;;;11.36;nan;100629.56;5013168;28;20397;-32
2022/12/24 03:36:59;;;;;;;;;;;;;;;11.34;nan;100623.66;5011145;28;19917;-32
2022/12/24 03:39:24;;;;;;;;;;;;;;;11.35;nan;100627.94;5011724;28;20454;-32
2022/12/24 03:41:50;;;;;;;;;;;;;;;11.32;nan;100628.47;5007289;28;19925;-32
2022/12/24 03:44:15;;;;;;;;;;;;;;;11.31;nan;100627.66;5011187;28;19918;-33
2022/12/24 03:46:40;;;;;;;;;;;;;;;11.30;nan;100633.25;5003230;28;19922;-33
2022/12/24 03:49:06;;;;;;;;;;;;;;;11.27;nan;100637.25;5009910;28;19925;-32
2022/12/24 03:51:32;;;;;;;;;;;;;;;11.27;nan;100639.94;5011446;28;19924;-33
2022/12/24 03:53:57;;;;;;;;;;;;;;;11.25;nan;100643.94;5010797;28;19928;-33
2022/12/24 03:56:23;;;;;;;;;;;;;;;11.23;nan;100638.81;5009528;28;19917;-32
2022/12/24 03:58:48;;;;;;;;;;;;;;;11.18;nan;100646.84;5011522;28;19921;-33
2022/12/24 04:01:15;;;;;;;;;;;;;;;11.16;nan;100641.72;5012269;28;19917;-33
2022/12/24 04:03:40;;;;;;;;;;;;;;;11.14;nan;100643.84;5012101;28;20322;-32
2022/12/24 04:06:07;;;;;;;;;;;;;;;11.17;nan;100647.91;5009355;28;20008;-32
2022/12/24 04:08:33;;;;;;;;;;;;;;;11.17;nan;100648.72;5011127;28;19917;-33
2022/12/24 04:10:58;;;;;;;;;;;;;;;11.19;nan;100651.94;5010356;28;20398;-33
2022/12/24 04:13:24;;;;;;;;;;;;;;;11.21;nan;100654.38;5012165;28;20386;-32
2022/12/24 04:15:59;;;;;;;;;;;;;;;11.21;nan;100657.03;5012116;28;20338;-33
2022/12/24 04:18:25;;;;;;;;;;;;;;;11.20;nan;100653.56;5007625;28;20055;-32
2022/12/24 04:20:51;;;;;;;;;;;;;;;11.23;nan;100654.91;5010030;28;19995;-32
2022/12/24 04:23:16;;;;;;;;;;;;;;;11.27;nan;100660.56;5004647;28;19921;-33
2022/12/24 04:25:41;;;;;;;;;;;;;;;11.28;nan;100665.69;5005674;28;20088;-33
2022/12/24 04:28:07;;;;;;;;;;;;;;;11.28;nan;100667.56;5008790;28;19921;-33
2022/12/24 04:30:32;;;;;;;;;;;;;;;11.28;nan;100659.50;5010943;28;20006;-32
2022/12/24 04:32:57;;;;;;;;;;;;;;;11.28;nan;100651.47;5013070;28;20441;-32
2022/12/24 04:35:23;;;;;;;;;;;;;;;11.22;nan;100653.31;5009781;28;19917;-32
2022/12/24 04:37:48;;;;;;;;;;;;;;;11.19;nan;100668.03;5009579;28;19921;-33
2022/12/24 04:40:13;;;;;;;;;;;;;;;11.18;nan;100674.47;5011358;28;19924;-32
2022/12/24 04:42:39;;;;;;;;;;;;;;;11.16;nan;100668.53;5009899;28;19972;-33
2022/12/24 04:45:04;;;;;;;;;;;;;;;11.14;nan;100667.19;5009655;28;19928;-32
2022/12/24 04:47:29;;;;;;;;;;;;;;;11.15;nan;100671.47;5008208;28;19936;-32
2022/12/24 04:49:55;;;;;;;;;;;;;;;11.12;nan;100677.31;5010486;28;19917;-32
2022/12/24 04:52:20;;;;;;;;;;;;;;;11.12;nan;100672.78;5002271;28;19917;-32
2022/12/24 04:54:46;;;;;;;;;;;;;;;11.11;nan;100679.19;5007869;28;19990;-32
2022/12/24 04:57:11;;;;;;;;;;;;;;;11.12;nan;100686.19;5009938;28;19918;-32
2022/12/24 04:59:36;;;;;;;;;;;;;;;11.13;nan;100695.03;5010631;28;20080;-32
2022/12/24 05:02:02;;;;;;;;;;;;;;;11.14;nan;100692.13;5006605;28;19968;-32
2022/12/24 05:04:27;;;;;;;;;;;;;;;11.16;nan;100690.00;5009766;28;20456;-32
2022/12/24 05:06:52;;;;;;;;;;;;;;;11.16;nan;100698.03;5007925;28;19917;-32
2022/12/24 05:09:18;;;;;;;;;;;;;;;11.13;nan;100703.91;5007262;28;19917;-33
2022/12/24 05:11:43;;;;;;;;;;;;;;;11.12;nan;100706.81;5001930;28;20302;-32
2022/12/24 05:14:08;;;;;;;;;;;;;;;11.12;nan;100710.31;5011245;28;20362;-32
2022/12/24 05:16:34;;;;;;;;;;;;;;;11.13;nan;100711.13;5003909;28;20390;-33
2022/12/24 05:18:59;;;;;;;;;;;;;;;11.13;nan;100714.63;5010526;28;19917;-32
2022/12/24 05:21:25;;;;;;;;;;;;;;;11.13;nan;100722.69;5009742;28;19924;-32
2022/12/24 05:26:42;;;;;;;;;;;;;;;11.16;nan;100718.69;5004619;28;19925;-32
2022/12/24 05:29:10;;;;;;;;;;;;;;;11.16;nan;100721.38;5002695;28;19932;-32
2022/12/24 05:31:36;;;;;;;;;;;;;;;11.17;nan;100715.75;5005654;28;19925;-32
2022/12/24 05:34:02;;;;;;;;;;;;;;;11.17;nan;100726.47;5006820;28;19918;-33
2022/12/24 05:36:27;;;;;;;;;;;;;;;11.17;nan;100721.13;5007913;28;19970;-32
2022/12/24 05:38:53;;;;;;;;;;;;;;;11.17;nan;100721.13;5002421;28;19968;-32
2022/12/24 05:41:18;;;;;;;;;;;;;;;11.19;nan;100718.97;5004497;28;19972;-32
2022/12/24 05:43:44;;;;;;;;;;;;;;;11.18;nan;100714.69;5006916;28;19967;-32
2022/12/24 05:46:11;;;;;;;;;;;;;;;11.18;nan;100722.72;5004021;28;19963;-32
2022/12/24 05:48:36;;;;;;;;;;;;;;;11.18;nan;100722.72;4999877;28;19917;-32
2022/12/24 05:51:06;;;;;;;;;;;;;;;11.16;nan;100727.53;5008853;28;19924;-32
2022/12/24 05:53:32;;;;;;;;;;;;;;;11.12;nan;100733.63;5009630;28;19917;-33
2022/12/24 05:56:04;;;;;;;;;;;;;;;11.11;nan;100745.41;5010939;28;19928;-33
2022/12/24 05:58:30;;;;;;;;;;;;;;;11.06;nan;100740.00;5004229;28;19921;-32
2022/12/24 06:00:55;;;;;;;;;;;;;;;11.06;nan;100743.50;5010550;28;20009;-32
2022/12/24 06:03:21;;;;;;;;;;;;;;;11.06;nan;100743.50;5009796;28;20055;-32
2022/12/24 06:05:46;;;;;;;;;;;;;;;11.07;nan;100755.03;5006422;28;20010;-32
2022/12/24 06:08:11;;;;;;;;;;;;;;;11.06;nan;100756.91;5008553;28;19917;-33
2022/12/24 06:10:37;;;;;;;;;;;;;;;11.06;nan;100773.00;5010115;28;19926;-32
2022/12/24 06:13:02;;;;;;;;;;;;;;;11.08;nan;100776.22;5004315;28;19929;-32
2022/12/24 06:15:27;;;;;;;;;;;;;;;11.09;nan;100772.50;4999619;28;19921;-32
2022/12/24 06:17:53;;;;;;;;;;;;;;;11.10;nan;100766.06;5007342;28;19921;-32
2022/12/24 06:20:18;;;;;;;;;;;;;;;11.09;nan;100769.81;5006660;28;20409;-33
2022/12/24 06:22:43;;;;;;;;;;;;;;;11.07;nan;100765.75;5006160;28;19925;-32
2022/12/24 06:25:09;;;;;;;;;;;;;;;11.04;nan;100768.94;5011215;28;20413;-32
2022/12/24 06:27:34;;;;;;;;;;;;;;;11.01;nan;100766.78;5010748;28;20366;-32
2022/12/24 06:29:59;;;;;;;;;;;;;;;10.99;nan;100763.53;4998465;28;19923;-33
2022/12/24 06:32:25;;;;;;;;;;;;;;;10.98;nan;100776.13;5006745;28;20024;-32
2022/12/24 06:34:50;;;;;;;;;;;;;;;10.99;nan;100775.06;5008541;28;19995;-32
2022/12/24 06:37:18;;;;;;;;;;;;;;;11.01;nan;100794.41;5003010;28;19921;-32
2022/12/24 06:39:45;;;;;;;;;;;;;;;11.00;nan;100798.13;5010158;28;19925;-32
2022/12/24 06:42:10;;;;;;;;;;;;;;;11.02;nan;100796.00;5005678;28;19980;-32
2022/12/24 06:44:36;;;;;;;;;;;;;;;11.02;nan;100793.34;5008378;28;20444;-33
2022/12/24 06:47:01;;;;;;;;;;;;;;;11.04;nan;100793.06;5006167;28;20083;-32
2022/12/24 06:49:26;;;;;;;;;;;;;;;11.04;nan;100793.88;5006647;28;19924;-32
2022/12/24 06:51:52;;;;;;;;;;;;;;;11.06;nan;100807.03;5001755;28;19956;-32
2022/12/24 06:54:17;;;;;;;;;;;;;;;11.05;nan;100808.91;4996434;28;20011;-33
2022/12/24 06:56:42;;;;;;;;;;;;;;;11.01;nan;100810.47;5002186;28;19957;-32
2022/12/24 06:59:08;;;;;;;;;;;;;;;10.99;nan;100815.28;5005071;28;20294;-32
2022/12/24 07:01:33;;;;;;;;;;;;;;;10.96;nan;100821.16;5000668;28;19972;-32
2022/12/24 07:03:58;;;;;;;;;;;;;;;10.94;nan;100827.78;5003828;28;19921;-32
2022/12/24 07:06:25;;;;;;;;;;;;;;;10.96;nan;100837.22;5008687;28;19949;-32
2022/12/24 07:08:50;;;;;;;;;;;;;;;10.95;nan;100840.97;5005322;28;20366;-32
2022/12/24 07:11:16;;;;;;;;;;;;;;;10.98;nan;100843.16;5007363;28;19965;-32
2022/12/24 07:13:41;;;;;;;;;;;;;;;10.99;nan;100849.31;5004337;28;19943;-32
2022/12/24 07:16:07;;;;;;;;;;;;;;;10.99;nan;100857.38;5003304;28;19957;-32
2022/12/24 07:18:32;;;;;;;;;;;;;;;10.99;nan;100855.50;5006404;28;19921;-32
2022/12/24 07:20:58;;;;;;;;;;;;;;;11.00;nan;100859.78;5007586;28;20371;-32
2022/12/24 07:23:23;;;;;;;;;;;;;;;11.00;nan;100857.13;5000367;28;20000;-32
2022/12/24 07:25:48;;;;;;;;;;;;;;;11.00;nan;100859.00;5000884;28;19921;-32
2022/12/24 07:28:14;;;;;;;;;;;;;;;11.01;nan;100874.00;4994485;28;19965;-32
2022/12/24 07:30:39;;;;;;;;;;;;;;;11.01;nan;100884.75;5012903;28;19924;-32
2022/12/24 07:33:04;;;;;;;;;;;;;;;11.01;nan;100879.38;5004472;28;19921;-32
2022/12/24 07:35:30;;;;;;;;;;;;;;;11.01;nan;100882.88;4996881;28;19921;-32
2022/12/24 07:37:55;;;;;;;;;;;;;;;11.00;nan;100891.16;5009841;28;19918;-32
2022/12/24 07:40:20;;;;;;;;;;;;;;;11.00;nan;100893.84;5007771;28;19924;-32
2022/12/24 07:42:46;;;;;;;;;;;;;;;11.00;nan;100899.22;5002588;28;19922;-32
2022/12/24 07:45:11;;;;;;;;;;;;;;;11.00;nan;100900.00;4998165;28;19924;-33
2022/12/24 07:47:36;;;;;;;;;;;;;;;11.01;nan;100909.69;5004119;28;19917;-32
2022/12/24 07:50:03;;;;;;;;;;;;;;;11.00;nan;100909.94;5006586;28;19926;-32
2022/12/24 07:52:29;;;;;;;;;;;;;;;11.00;nan;100909.94;5003342;28;19924;-32
2022/12/24 07:54:54;;;;;;;;;;;;;;;11.00;nan;100912.59;5007349;28;19922;-32
2022/12/24 07:57:19;;;;;;;;;;;;;;;10.99;nan;100917.16;5009349;28;19925;-32
2022/12/24 07:59:44;;;;;;;;;;;;;;;10.98;nan;100917.41;5002177;28;19918;-32
2022/12/24 08:02:10;;;;;;;;;;;;;;;10.98;nan;100925.44;5005303;28;19930;-32
2022/12/24 08:04:36;;;;;;;;;;;;;;;10.98;nan;100930.81;5009693;28;19925;-32
2022/12/24 08:07:02;;;;;;;;;;;;;;;10.97;nan;100929.19;5004664;28;20017;-32
2022/12/24 08:09:29;;;;;;;;;;;;;;;10.97;nan;100931.88;5005907;28;20228;-32
2022/12/24 08:11:55;;;;;;;;;;;;;;;10.98;nan;100934.31;5001711;28;19922;-32
2022/12/24 08:14:20;;;;;;;;;;;;;;;10.99;nan;100929.75;5004762;28;19917;-32
2022/12/24 08:16:45;;;;;;;;;;;;;;;10.99;nan;100935.13;5004267;28;19981;-35
2022/12/24 08:19:11;;;;;;;;;;;;;;;10.99;nan;100935.13;4996326;28;20242;-34
2022/12/24 08:21:36;;;;;;;;;;;;;;;11.00;nan;100937.56;5000769;28;20272;-34
2022/12/24 08:24:01;;;;;;;;;;;;;;;11.01;nan;100943.72;5002975;28;20294;-34
2022/12/24 08:26:27;;;;;;;;;;;;;;;11.01;nan;100939.16;5013951;28;20446;-35
2022/12/24 08:28:52;;;;;;;;;;;;;;;11.01;nan;100946.41;5003103;28;20286;-33
2022/12/24 08:31:17;;;;;;;;;;;;;;;11.00;nan;100942.91;5007604;28;20349;-33
2022/12/24 08:33:43;;;;;;;;;;;;;;;11.01;nan;100949.09;5006030;28;20412;-34
2022/12/24 08:36:08;;;;;;;;;;;;;;;11.00;nan;100950.94;5005092;28;20355;-35
2022/12/24 08:38:34;;;;;;;;;;;;;;;11.02;nan;100950.72;5001453;28;20353;-34
2022/12/24 08:40:59;;;;;;;;;;;;;;;11.02;nan;100962.25;5006091;28;19918;-33
2022/12/24 08:43:25;;;;;;;;;;;;;;;11.03;nan;100965.72;5002420;28;19921;-35
2022/12/24 08:45:51;;;;;;;;;;;;;;;11.03;nan;100965.72;5005843;28;20051;-34
2022/12/24 08:48:16;;;;;;;;;;;;;;;11.03;nan;100966.53;5002849;28;20031;-33
2022/12/24 08:50:42;;;;;;;;;;;;;;;11.05;nan;100972.47;5005807;28;19921;-34
2022/12/24 08:53:08;;;;;;;;;;;;;;;11.06;nan;100978.66;5002740;28;19964;-34
2022/12/24 08:55:34;;;;;;;;;;;;;;;11.07;nan;100975.72;5005411;28;19921;-35
2022/12/24 08:57:59;;;;;;;;;;;;;;;11.07;nan;100981.06;4999812;28;19921;-34
2022/12/24 09:00:25;;;;;;;;;;;;;;;11.07;nan;100988.31;5004112;28;19917;-35
2022/12/24 09:02:50;;;;;;;;;;;;;;;11.09;nan;100986.19;5002974;28;20894;-34
2022/12/24 09:05:15;;;;;;;;;;;;;;;11.10;nan;100993.19;5001033;28;19917;-34
2022/12/24 09:07:40;;;;;;;;;;;;;;;11.09;nan;100987.00;5002518;28;20083;-34
2022/12/24 09:10:06;;;;;;;;;;;;;;;11.09;nan;100996.91;5002413;28;20004;-34
2022/12/24 09:12:31;;;;;;;;;;;;;;;11.08;nan;100997.97;4997407;28;19969;-35
2022/12/24 09:14:57;;;;;;;;;;;;;;;11.09;nan;101007.66;4996672;28;20071;-34
2022/12/24 09:17:22;;;;;;;;;;;;;;;11.10;nan;101004.72;5003731;28;19921;-35
2022/12/24 09:19:47;;;;;;;;;;;;;;;11.11;nan;101003.66;4999219;28;20139;-34
2022/12/24 09:22:13;;;;;;;;;;;;;;;11.12;nan;100997.25;5005027;28;20363;-34
2022/12/24 09:24:38;;;;;;;;;;;;;;;11.13;nan;100998.88;4999937;28;19971;-34
2022/12/24 09:27:03;;;;;;;;;;;;;;;11.14;nan;101002.38;5003318;28;19973;-34
2022/12/24 09:29:29;;;;;;;;;;;;;;;11.15;nan;101012.88;5001263;28;19932;-34
2022/12/24 09:31:57;;;;;;;;;;;;;;;11.18;nan;101011.56;5002502;28;20288;-34
2022/12/24 09:34:23;;;;;;;;;;;;;;;11.20;nan;101017.47;4997501;28;19953;-34
2022/12/24 09:36:48;;;;;;;;;;;;;;;11.23;nan;101010.81;5003935;28;20004;-34
2022/12/24 09:39:14;;;;;;;;;;;;;;;11.24;nan;101015.94;5007721;28;19971;-34
2022/12/24 09:42:02;;;;;;;;;;;;;;;11.24;nan;101017.78;5001699;28;19968;-34
2022/12/24 09:44:45;;;;;;;;;;;;;;;11.24;nan;101017.78;4997261;28;20176;-34
2022/12/24 09:47:29;;;;;;;;;;;;;;;11.20;nan;101018.28;5001147;28;19922;-34
2022/12/24 09:49:56;;;;;;;;;;;;;;;11.14;nan;101019.28;5002015;28;20025;-33
2022/12/24 09:52:41;;;;;;;;;;;;;;;11.16;nan;101019.84;5004116;28;19926;-34
2022/12/24 09:55:15;;;;;;;;;;;;;;;11.18;nan;101024.97;5001908;28;19933;-34
2022/12/24 09:57:41;;;;;;;;;;;;;;;11.21;nan;101035.19;4999573;28;19923;-35
2022/12/24 10:00:26;;;;;;;;;;;;;;;11.22;nan;101026.09;5003734;28;19925;-34
2022/12/24 10:02:52;;;;;;;;;;;;;;;11.24;nan;101039.25;4997228;28;19996;-34
2022/12/24 10:05:22;;;;;;;;;;;;;;;11.26;nan;101040.63;5001785;28;19925;-34
2022/12/24 10:08:14;;;;;;;;;;;;;;;11.28;nan;101041.19;5002825;28;21349;-34
2022/12/24 10:10:50;;;;;;;;;;;;;;;11.26;nan;101037.94;5002035;28;19929;-34
2022/12/24 10:13:15;;;;;;;;;;;;;;;11.23;nan;101041.13;5001204;28;19920;-34
2022/12/24 10:15:40;;;;;;;;;;;;;;;11.23;nan;101048.34;5005517;28;19982;-34
2022/12/24 10:18:24;;;;;;;;;;;;;;;11.25;nan;101043.56;5004279;28;19924;-34
2022/12/24 10:20:49;;;;;;;;;;;;;;;11.27;nan;101044.94;5003795;28;19922;-34
2022/12/24 10:23:24;;;;;;;;;;;;;;;11.31;nan;101042.56;5005182;28;19929;-34
2022/12/24 10:26:07;;;;;;;;;;;;;;;11.33;nan;101043.16;4998823;28;19925;-34
2022/12/24 10:28:37;;;;;;;;;;;;;;;11.35;nan;101041.03;4997009;28;19917;-34
2022/12/24 10:31:05;;;;;;;;;;;;;;;11.36;nan;101048.03;5000700;28;19924;-34
2022/12/24 10:33:35;;;;;;;;;;;;;;;11.40;nan;101049.16;5000596;28;20008;-34
2022/12/24 10:36:00;;;;;;;;;;;;;;;11.44;nan;101045.72;4998596;28;19921;-34
2022/12/24 10:38:25;;;;;;;;;;;;;;;11.46;nan;101037.44;5002276;28;19963;-34
2022/12/24 10:40:53;;;;;;;;;;;;;;;11.50;nan;101033.22;5001335;28;19991;-34
2022/12/24 10:43:20;;;;;;;;;;;;;;;11.54;nan;101042.41;4999435;28;19934;-34
2022/12/24 10:46:06;;;;;;;;;;;;;;;11.55;nan;101037.84;4999441;28;19917;-34
2022/12/24 10:48:36;;;;;;;;;;;;;;;11.54;nan;101049.63;5002752;28;20000;-34
2022/12/24 10:51:03;;;;;;;;;;;;;;;11.53;nan;101059.56;5000163;28;19917;-34
2022/12/24 10:53:37;;;;;;;;;;;;;;;11.53;nan;101061.44;5000607;28;20015;-34
2022/12/24 10:56:07;;;;;;;;;;;;;;;11.56;nan;101061.75;4999620;28;20391;-35
2022/12/24 10:58:32;;;;;;;;;;;;;;;11.59;nan;101061.25;4999615;28;20004;-34
2022/12/24 11:00:58;;;;;;;;;;;;;;;11.64;nan;101061.31;5001949;28;20072;-34
2022/12/24 11:03:29;;;;;;;;;;;;;;;11.68;nan;101064.34;5002159;28;20013;-34
2022/12/24 11:06:11;;;;;;;;;;;;;;;11.71;nan;101067.31;5008252;28;20355;-34
2022/12/24 11:08:38;;;;;;;;;;;;;;;11.69;nan;101077.50;5005420;28;20008;-34
2022/12/24 11:11:05;;;;;;;;;;;;;;;11.67;nan;101084.16;5008191;28;19922;-34
2022/12/24 11:13:44;;;;;;;;;;;;;;;11.68;nan;101083.94;5005340;28;20465;-34
2022/12/24 11:16:09;;;;;;;;;;;;;;;11.70;nan;101087.19;5003700;28;19917;-34
2022/12/24 11:18:37;;;;;;;;;;;;;;;11.75;nan;101097.97;5005417;28;20403;-35
2022/12/24 11:21:03;;;;;;;;;;;;;;;11.76;nan;101096.91;5008759;28;19921;-34
2022/12/24 11:23:29;;;;;;;;;;;;;;;11.78;nan;101100.19;5004901;28;19991;-34
2022/12/24 11:25:55;;;;;;;;;;;;;;;11.79;nan;101096.44;5009126;28;20104;-34
2022/12/24 11:28:21;;;;;;;;;;;;;;;11.79;nan;101099.13;5006420;28;19921;-33
2022/12/24 11:30:55;;;;;;;;;;;;;;;11.82;nan;101105.06;5007245;28;19928;-34
2022/12/24 11:33:21;;;;;;;;;;;;;;;11.86;nan;101106.22;5005464;28;19921;-34
2022/12/24 11:35:48;;;;;;;;;;;;;;;11.88;nan;101099.53;5007205;28;19925;-35
2022/12/24 11:38:19;;;;;;;;;;;;;;;11.92;nan;101097.97;5003625;28;20445;-34
2022/12/24 11:40:46;;;;;;;;;;;;;;;11.93;nan;101096.91;5001452;28;19936;-33
2022/12/24 11:43:19;;;;;;;;;;;;;;;11.96;nan;101095.59;5011173;28;19968;-34
2022/12/24 11:45:54;;;;;;;;;;;;;;;11.99;nan;101095.91;5005494;28;19937;-34
2022/12/24 11:48:33;;;;;;;;;;;;;;;11.95;nan;101096.66;5004975;28;19933;-34
2022/12/24 11:51:02;;;;;;;;;;;;;;;11.95;nan;101104.72;5004606;28;19926;-34
2022/12/24 11:53:30;;;;;;;;;;;;;;;11.96;nan;101107.16;4999733;28;20399;-35
2022/12/24 11:55:56;;;;;;;;;;;;;;;11.99;nan;101116.56;5002519;28;19979;-35
2022/12/24 11:58:40;;;;;;;;;;;;;;;12.02;nan;101126.81;5000065;28;19925;-33
2022/12/24 12:01:14;;;;;;;;;;;;;;;12.02;nan;101116.88;5001667;28;19921;-34
2022/12/24 12:03:48;;;;;;;;;;;;;;;12.03;nan;101125.78;5000579;28;20326;-34
2022/12/24 12:06:33;;;;;;;;;;;;;;;12.03;nan;101131.97;5003234;28;19961;-34
2022/12/24 12:09:01;;;;;;;;;;;;;;;12.01;nan;101123.31;5005314;28;20315;-34
2022/12/24 12:11:27;;;;;;;;;;;;;;;11.98;nan;101126.50;5009507;28;19921;-35
2022/12/24 12:13:55;;;;;;;;;;;;;;;11.98;nan;101131.88;5001784;28;20349;-34
2022/12/24 12:16:59;;;;;;;;;;;;;;;11.99;nan;101132.69;5005802;28;19926;-34
2022/12/24 12:19:25;;;;;;;;;;;;;;;11.98;nan;101139.13;5008885;28;19924;-34
2022/12/24 12:21:51;;;;;;;;;;;;;;;12.00;nan;101134.31;5003686;28;20536;-34
2022/12/24 12:24:28;;;;;;;;;;;;;;;12.01;nan;101136.75;5004411;28;19976;-34
2022/12/24 12:27:13;;;;;;;;;;;;;;;12.03;nan;101128.47;5003935;28;19924;-34
2022/12/24 12:29:43;;;;;;;;;;;;;;;12.05;nan;101132.53;5004444;28;19921;-34
2022/12/24 12:32:31;;;;;;;;;;;;;;;12.06;nan;101127.97;5009041;28;19926;-34
2022/12/24 12:35:03;;;;;;;;;;;;;;;12.05;nan;101127.16;5008082;28;19971;-33
2022/12/24 12:37:39;;;;;;;;;;;;;;;12.03;nan;101125.78;5005268;28;19921;-34
2022/12/24 12:40:11;;;;;;;;;;;;;;;12.06;nan;101127.97;5007722;28;19944;-34
2022/12/24 12:42:38;;;;;;;;;;;;;;;12.07;nan;101132.28;5007299;28;19925;-34
2022/12/24 12:45:07;;;;;;;;;;;;;;;12.03;nan;101133.84;5007026;28;20399;-34
2022/12/24 12:47:51;;;;;;;;;;;;;;;12.01;nan;101130.56;5004520;28;19917;-34
2022/12/24 12:50:21;;;;;;;;;;;;;;;12.00;nan;101135.13;5005330;28;19917;-34
2022/12/24 12:52:53;;;;;;;;;;;;;;;12.02;nan;101134.88;5007201;28;20412;-34
2022/12/24 12:55:23;;;;;;;;;;;;;;;12.04;nan;101149.72;5006670;28;20268;-34
2022/12/24 12:57:50;;;;;;;;;;;;;;;12.05;nan;101143.28;5004568;28;19925;-34
2022/12/24 13:00:17;;;;;;;;;;;;;;;12.04;nan;101159.63;5005353;28;19957;-34
2022/12/24 13:03:01;;;;;;;;;;;;;;;12.02;nan;101153.69;5001070;28;19968;-34
2022/12/24 13:05:45;;;;;;;;;;;;;;;12.01;nan;101157.41;5002436;28;19921;-35
2022/12/24 13:08:29;;;;;;;;;;;;;;;11.97;nan;101158.97;5004466;28;20012;-34